Cleator Moor, United Kingdom
Current Conditions -  °F | °C
As of 10:50 PM on Monday 22 Dec 2014 (Local Time) from EGNS Reporting Station
Light Rain Light Rain  
Wind Chill: 52°   Ceiling: 900
Heat Index: 52°   Visibility: 3mi
Dew Point: 52°   Wind: 26mph
Humidity: 100%   Direction: 240°WSW
Pressure: 29.77"   Gusts: 38mph
Location:  54.52°N, 3.52°W
Report Text: EGNS 222250Z 24023G33KT 210V270 5000 -RADZ FEW007 BKN009 OVC015 11/11 Q1008
Loading
Personal Weather Stations






























Interactive Weather Map New forecast layout! Learn more

10-Day Weather Forecast

Advertisements
Track Severe Weather on mobile